Twin Oaks (599, 859) Station Data

Red Flag Warning: No
Fire Weather Zone: 250
SDGE Region: North East
Lat/Lon: 33.194/-117.153

Observations

Time Wind Speed/Gust Temp(F) RH Fuel Moist Fuel Temp(F) Dewpt(F) Tmax(F) Tmin(F) Accum Precip 10-min Precip SL Press(mb)
5/24 8:20am 251 3 G 7 58° 100% - - 58° 58.2° 53.7° - - -
5/24 8:10am 15 2 G 4 57° 100% - - 57° 57.8° 53.7° - - -
5/24 8:00am 351 2 G 4 57° 100% - - 57° 57.7° 53.7° - - -
5/24 7:50am 292 1 G 3 57° 100% - - 57° 57.7° 53.7° - - -
5/24 7:40am 54 2 G 4 57° 100% - - 57° 57.3° 53.7° - - -
5/24 7:30am 30 1 G 3 57° 100% - - 57° 57.3° 53.7° - - -
5/24 7:20am 304 2 G 3 57° 100% - - 57° 57.2° 53.7° - - -
5/24 7:10am 271 2 G 6 57° 100% - - 57° 57.2° 53.7° - - -
5/24 7:00am 157 1 G 4 57° 100% - - 57° 57.2° 53.7° - - -
5/24 6:50am 220 3 G 7 57° 100% - - 57° 57.2° 53.7° - - -
5/24 6:40am 161 2 G 4 56° 100% - - 56° 57.2° 53.7° - - -
5/24 6:30am 95 1 G 2 56° 100% - - 56° 57.2° 53.7° - - -
5/24 6:20am 239 1 G 3 56° 100% - - 56° 57.2° 53.7° - - -
5/24 6:10am 259 2 G 5 56° 100% - - 56° 57.2° 53.7° - - -
5/24 6:00am 263 1 G 4 56° 100% - - 56° 57.2° 53.7° - - -
5/24 5:50am 46 1 G 2 55° 100% - - 55° 57.2° 53.7° - - -
5/24 5:40am 266 1 G 3 55° 100% - - 55° 57.2° 53.7° - - -
5/24 5:30am 288 4 G 7 55° 100% - - 55° 57.2° 53.7° - - -
5/24 5:20am 320 3 G 6 55° 100% - - 55° 57.2° 53.7° - - -
5/24 5:10am 16 3 G 6 55° 100% - - 55° 57.2° 53.7° - - -
5/24 5:00am 41 2 G 6 56° 100% - - 56° 57.2° 53.7° - - -
5/24 4:50am 56 2 G 3 56° 100% - - 56° 57.2° 53.7° - - -
5/24 4:40am 68 4 G 7 55° 100% - - 55° 57.2° 53.7° - - -
5/24 4:30am 58 4 G 8 55° 100% - - 55° 57.2° 53.7° - - -
5/24 4:20am 60 3 G 5 56° 100% - - 56° 57.2° 53.7° - - -
5/24 4:10am 42 2 G 4 56° 100% - - 56° 57.2° 53.7° - - -
5/24 4:00am 32 1 G 2 55° 100% - - 55° 57.2° 53.7° - - -
5/24 3:50am 29 1 G 2 55° 100% - - 55° 57.2° 53.7° - - -
5/24 3:40am 24 2 G 4 55° 100% - - 55° 57.2° 53.7° - - -
5/24 3:30am 48 1 G 3 55° 100% - - 55° 57.2° 53.7° - - -
5/24 3:20am 47 0 G 2 55° 100% - - 55° 57.2° 53.7° - - -
5/24 3:10am 23 0 G 1 55° 100% - - 55° 57.2° 53.7° - - -
5/24 3:00am 15 2 G 4 54° 100% - - 54° 57.2° 53.7° - - -
5/24 2:50am 10 3 G 4 54° 100% - - 54° 57.2° 53.7° - - -
5/24 2:40am 9 2 G 4 54° 100% - - 54° 57.2° 53.7° - - -
5/24 2:30am 7 2 G 3 54° 100% - - 54° 57.2° 53.9° - - -
5/24 2:20am 8 0 G 1 55° 100% - - 55° 57.2° 53.9° - - -
5/24 2:10am 6 0 G 1 54° 100% - - 54° 57.2° 53.9° - - -
5/24 2:00am 19 1 G 2 54° 100% - - 54° 57.2° 53.9° - - -
5/24 1:50am 20 1 G 2 54° 100% - - 54° 57.2° 53.9° - - -
5/24 1:40am 13 0 G 2 55° 100% - - 55° 57.2° 54.2° - - -
5/24 1:30am 350 1 G 3 55° 100% - - 55° 57.2° 54.5° - - -
5/24 1:20am 320 1 G 4 56° 100% - - 56° 57.2° 55° - - -
5/24 1:10am 296 2 G 4 56° 100% - - 56° 57.2° 55° - - -
5/24 1:00am 332 1 G 3 55° 100% - - 55° 57.2° 55° - - -
5/24 12:50am 9 1 G 3 55° 100% - - 55° 57.2° 55° - - -
5/24 12:40am 9 2 G 3 56° 100% - - 56° 57.2° 55.2° - - -
5/24 12:30am 11 1 G 2 56° 100% - - 56° 57.2° 55.9° - - -
5/24 12:20am 19 1 G 2 56° 100% - - 56° 57.2° 56.1° - - -
5/24 12:10am 358 1 G 2 57° 100% - - 57° 57.2° 56.2° - - -
5/24 12:00am 291 0 G 3 57° 100% - - 57° 82.7° 51.8° - - -
5/23 11:50pm 337 1 G 1 57° 100% - - 57° 82.7° 51.8° - - -
5/23 11:40pm 269 1 G 3 57° 100% - - 57° 82.7° 51.8° - - -
5/23 11:30pm 263 1 G 2 58° 99% - - 57° 82.7° 51.8° - - -
5/23 11:20pm 295 1 G 2 58° 91% - - 55° 82.7° 51.8° - - -
5/23 11:10pm 340 1 G 2 58° 93% - - 56° 82.7° 51.8° - - -
5/23 11:00pm 345 2 G 3 58° 91% - - 55° 82.7° 51.8° - - -
5/23 10:50pm 297 3 G 5 58° 97% - - 57° 82.7° 51.8° - - -
5/23 10:40pm 287 2 G 4 59° 85% - - 54° 82.7° 51.8° - - -
5/23 10:30pm 328 1 G 2 59° 84% - - 54° 82.7° 51.8° - - -
5/23 10:20pm 314 1 G 2 59° 83% - - 54° 82.7° 51.8° - - -
5/23 10:10pm 283 1 G 3 60° 83% - - 55° 82.7° 51.8° - - -
5/23 10:00pm 281 1 G 2 60° 82% - - 55° 82.7° 51.8° - - -
5/23 9:50pm 342 1 G 3 61° 82% - - 55° 82.7° 51.8° - - -
5/23 9:40pm 312 2 G 6 61° 81% - - 55° 82.7° 51.8° - - -
5/23 9:30pm 317 3 G 7 61° 80% - - 55° 82.7° 51.8° - - -
5/23 9:20pm 276 1 G 3 62° 78% - - 55° 82.7° 51.8° - - -
5/23 9:10pm 344 1 G 2 62° 76% - - 54° 82.7° 51.8° - - -
5/23 9:00pm 349 1 G 2 63° 76% - - 55° 82.7° 51.8° - - -
5/23 8:50pm 358 2 G 3 63° 74% - - 55° 82.7° 51.8° - - -
5/23 8:40pm 335 1 G 2 64° 73% - - 55° 82.7° 51.8° - - -
5/23 8:30pm 328 1 G 1 65° 72% - - 56° 82.7° 51.8° - - -
5/23 8:20pm 204 0 G 1 66° 70% - - 56° 82.7° 51.8° - - -
5/23 8:10pm 339 1 G 2 66° 69% - - 56° 82.7° 51.8° - - -
5/23 8:00pm 325 1 G 2 67° 68% - - 56° 82.7° 51.8° - - -
5/23 7:50pm 351 1 G 2 68° 65% - - 56° 82.7° 51.8° - - -
5/23 7:40pm 280 1 G 3 69° 64% - - 56° 82.7° 51.8° - - -
5/23 7:30pm 268 1 G 3 70° 62% - - 56° 82.7° 51.8° - - -
5/23 7:20pm 266 2 G 3 70° 62% - - 56° 82.7° 51.8° - - -
5/23 7:10pm 282 3 G 5 70° 61% - - 56° 82.7° 51.8° - - -
5/23 7:00pm 282 3 G 5 71° 60% - - 56° 82.7° 51.8° - - -
5/23 6:50pm 292 3 G 5 71° 59% - - 56° 82.7° 51.8° - - -
5/23 6:40pm 296 4 G 7 71° 60% - - 56° 82.7° 51.8° - - -
5/23 6:30pm 282 6 G 10 71° 60% - - 56° 82.7° 51.8° - - -
5/23 6:20pm 279 5 G 8 72° 58% - - 56° 82.7° 51.8° - - -
5/23 6:10pm 284 5 G 9 71° 58% - - 56° 82.7° 51.8° - - -
5/23 6:00pm 287 6 G 11 72° 58% - - 56° 82.7° 51.8° - - -
5/23 5:50pm 285 7 G 12 72° 57% - - 56° 82.7° 51.8° - - -
5/23 5:40pm 284 7 G 10 72° 56% - - 56° 82.7° 51.8° - - -
5/23 5:30pm 289 8 G 13 73° 54% - - 55° 82.7° 51.8° - - -
5/23 5:20pm 282 7 G 12 73° 53% - - 55° 82.7° 51.8° - - -
5/23 5:10pm 288 8 G 14 74° 51% - - 55° 82.7° 51.8° - - -
5/23 5:00pm 282 8 G 13 76° 47% - - 55° 82.7° 51.8° - - -
5/23 4:50pm 231 6 G 11 81° 37% - - 52° 82.7° 51.8° - - -
5/23 4:40pm 224 5 G 8 82° 32% - - 49° 82.7° 51.8° - - -
5/23 4:30pm 232 4 G 8 82° 31% - - 49° 82.7° 51.8° - - -
5/23 4:20pm 190 5 G 8 82° 32% - - 49° 82.7° 51.8° - - -
5/23 4:10pm 185 5 G 9 81° 34% - - 49° 82.7° 51.8° - - -
5/23 4:00pm 243 3 G 7 81° 34% - - 50° 82.7° 51.8° - - -
5/23 3:50pm 259 3 G 7 80° 35% - - 50° 82.7° 51.8° - - -
5/23 3:40pm 248 3 G 6 80° 35% - - 50° 82.7° 51.8° - - -
5/23 3:30pm 232 4 G 8 79° 37% - - 51° 82.7° 51.8° - - -
5/23 3:20pm 219 4 G 9 79° 40% - - 52° 82.7° 51.8° - - -
5/23 3:10pm 199 5 G 9 78° 44% - - 54° 82.7° 51.8° - - -
5/23 3:00pm 193 3 G 7 77° 48% - - 55° 82.7° 51.8° - - -
5/23 2:50pm 175 4 G 8 75° 51% - - 56° 82.7° 51.8° - - -
5/23 2:40pm 168 4 G 7 74° 54% - - 56° 82.7° 51.8° - - -
5/23 2:30pm 184 4 G 8 72° 57% - - 56° 82.7° 51.8° - - -
5/23 2:20pm 212 4 G 8 72° 58% - - 57° 82.7° 51.8° - - -
5/23 2:10pm 252 5 G 9 72° 59% - - 57° 82.7° 51.8° - - -
5/23 2:00pm 250 5 G 9 72° 59% - - 57° 82.7° 51.8° - - -
5/23 1:50pm 258 3 G 9 71° 61% - - 57° 82.7° 51.8° - - -
5/23 1:40pm 252 5 G 9 72° 60% - - 57° 82.7° 51.8° - - -
5/23 1:30pm 244 4 G 10 70° 62% - - 57° 82.7° 51.8° - - -
5/23 1:20pm 251 5 G 10 70° 63% - - 57° 82.7° 51.8° - - -
5/23 1:10pm 258 5 G 9 70° 64% - - 57° 82.7° 51.8° - - -
5/23 1:00pm 254 5 G 11 69° 66% - - 57° 82.7° 51.8° - - -
5/23 12:50pm 251 6 G 10 69° 66% - - 57° 82.7° 51.8° - - -
5/23 12:40pm 262 6 G 11 68° 68% - - 57° 82.7° 51.8° - - -
5/23 12:30pm 247 8 G 13 67° 70% - - 57° 82.7° 51.8° - - -
5/23 12:20pm 265 8 G 12 67° 70% - - 57° 82.7° 51.8° - - -
5/23 12:10pm 268 8 G 13 67° 70% - - 57° 82.7° 51.8° - - -
5/23 12:00pm 275 10 G 15 68° 69% - - 57° 82.7° 51.8° - - -
5/23 11:50am 279 9 G 16 69° 66% - - 58° 82.7° 51.8° - - -
5/23 11:40am 282 9 G 16 70° 65% - - 58° 82.7° 51.8° - - -
5/23 11:30am 286 10 G 16 72° 60% - - 58° 82.7° 51.8° - - -
5/23 11:20am 286 10 G 16 74° 57% - - 58° 82.7° 51.8° - - -
5/23 11:10am 281 7 G 13 76° 53% - - 58° 82.7° 51.8° - - -
5/23 11:00am 285 8 G 14 78° 50% - - 58° 82.7° 51.8° - - -
5/23 10:50am 260 4 G 8 82° 43% - - 57° 82.7° 51.8° - - -
5/23 10:40am 227 5 G 11 82° 42% - - 57° 82.7° 51.8° - - -
5/23 10:30am 180 4 G 9 82° 42% - - 57° 82.6° 51.8° - - -
5/23 10:20am 174 4 G 7 80° 43% - - 56° 81.1° 51.8° - - -
5/23 10:10am 179 4 G 7 79° 44% - - 56° 80° 51.8° - - -
5/23 10:00am 180 3 G 6 79° 45% - - 56° 78.9° 51.8° - - -
5/23 9:50am 186 3 G 5 77° 50% - - 57° 78.3° 51.8° - - -
5/23 9:40am 160 3 G 5 76° 53% - - 57° 76° 51.8° - - -
5/23 9:30am 238 1 G 3 74° 56% - - 57° 75.8° 51.8° - - -
5/23 9:20am 215 2 G 4 71° 63% - - 58° 72.4° 51.8° - - -
5/23 9:10am 163 3 G 6 70° 65% - - 58° 70.6° 51.8° - - -
5/23 9:00am 242 2 G 3 68° 70% - - 58° 69.1° 51.8° - - -
5/23 8:50am 106 1 G 3 66° 77% - - 58° 66.7° 51.8° - - -
5/23 8:40am 161 2 G 4 63° 85% - - 58° 64.2° 51.8° - - -
5/23 8:30am 197 2 G 4 61° 100% - - 61° 62° 51.8° - - -
5/23 8:20am 207 2 G 3 60° 100% - - 60° 60.3° 51.8° - - -
5/23 8:10am 177 2 G 4 59° 100% - - 59° 59.4° 51.8° - - -
5/23 8:00am 148 2 G 4 58° 100% - - 58° 58.4° 51.8° - - -
5/23 7:50am 221 1 G 2 57° 100% - - 57° 58.1° 51.8° - - -
5/23 7:40am 107 1 G 2 57° 100% - - 57° 58.1° 51.8° - - -
5/23 7:30am 93 2 G 3 56° 100% - - 56° 58.1° 51.8° - - -
5/23 7:20am 158 1 G 2 56° 100% - - 56° 58.1° 51.8° - - -
5/23 7:10am 181 1 G 2 56° 100% - - 56° 58.1° 51.8° - - -
5/23 7:00am 192 0 G 1 55° 100% - - 55° 58.1° 51.8° - - -
5/23 6:50am 0 0 G 0 54° 100% - - 54° 58.1° 51.8° - - -
5/23 6:40am 26 0 G 1 54° 100% - - 54° 58.1° 51.8° - - -
5/23 6:30am 301 0 G 1 53° 100% - - 53° 58.1° 51.8° - - -
5/23 6:20am 78 0 G 1 53° 100% - - 53° 58.1° 51.8° - - -
5/23 6:10am 266 1 G 2 53° 100% - - 53° 58.1° 51.8° - - -
5/23 6:00am 324 0 G 2 52° 100% - - 52° 58.1° 51.8° - - -